Main page
METAR-TAF:

METAR-TAF

Airports :

Hearne Municipal Airport

Hearne, Texas, United States

latitude: 30-52-18N, longitude: 096-37-20W, elevation: 285 ft

Current weather observation

The report was made 15 minutes ago, at 22:35 UTC
Wind 8 mph from the North
Temperature 59°F
Humidity 48%
Pressure 30.29 in. Hg
Visibility: 10 miles
Clear sky

METAR: KLHB 202235Z AUTO 35007KT 10SM CLR 15/04 A3029 RMK AO2 T01480035

Time: 16:50 (22:50 UTC)


TAF: missing

Weather observations and forecasts of more than 4000 airports (METAR and TAF reports).

The available stations are represented by yellow and red dots on the map.

Hover mouse over dot to see the name of the station.

Then click to see weather observations and forecasts.

To change the map : click on the green buttons with a black cross to zoom in, on the green button with a dash to zoom out, or on the green arrows for adjacent maps.


METAR-TAF: